Terminal Aerodrome Forecast
Issued by NWS

Home | Current Version | Previous Version | Text Only | Print | Product List | Glossary On
Versions: 1 2 3 4 5 6 7 8 9 10 11 12 13 14 15 16 17 18 19 20 21 22 23 24 25 26 27 28 29 30
000
FTUS41 KCTP 272350
TAFBFD
TAF
KBFD 272350Z 2800/2824 VRB03KT P6SM FEW120
     FM280300 35002KT 2SM BR OVC050
     FM280600 05002KT 2SM BR OVC015
     FM281200 07005KT 4SM BR OVC003
     FM281500 07008KT P6SM OVC015
     FM281800 04009KT P6SM -SHRA OVC040=

USA.gov is the U.S. government's official web portal to all federal, state and local government web resources and services.